createdAt,value
2019-02-20T00:02:16.739Z,4.58
2019-02-20T00:04:43.843Z,4.53
2019-02-20T00:07:10.920Z,4.49
2019-02-20T00:09:37.979Z,4.45
2019-02-20T00:12:05.156Z,4.44
2019-02-20T00:14:32.343Z,4.44
2019-02-20T00:16:59.376Z,4.44
2019-02-20T00:19:26.423Z,4.40
2019-02-20T00:21:53.516Z,4.42
2019-02-20T00:24:20.566Z,4.40
2019-02-20T00:26:47.705Z,4.37
2019-02-20T00:29:14.791Z,4.39
2019-02-20T00:31:41.979Z,4.50
2019-02-20T00:34:09.028Z,4.55
2019-02-20T00:36:36.112Z,4.54
2019-02-20T00:39:06.651Z,4.53
2019-02-20T00:41:33.690Z,4.53
2019-02-20T00:44:26.148Z,4.52
2019-02-20T00:47:57.015Z,4.53
2019-02-20T00:50:25.688Z,4.56
2019-02-20T00:52:57.860Z,4.60
2019-02-20T00:55:24.903Z,4.62
2019-02-20T00:58:40.908Z,4.68
2019-02-20T01:01:07.963Z,4.72
2019-02-20T01:03:35.004Z,4.70
2019-02-20T01:06:02.095Z,4.72
2019-02-20T01:08:29.273Z,4.72
2019-02-20T01:10:56.307Z,4.73
2019-02-20T01:13:23.404Z,4.74
2019-02-20T01:15:51.554Z,4.74
2019-02-20T01:18:18.728Z,4.72
2019-02-20T01:20:46.919Z,4.69
2019-02-20T01:23:14.014Z,4.72
2019-02-20T01:25:41.052Z,4.75
2019-02-20T01:28:08.146Z,4.78
2019-02-20T01:30:35.225Z,4.79
2019-02-20T01:33:02.301Z,4.79
2019-02-20T01:35:29.684Z,4.83
2019-02-20T01:37:56.747Z,4.80
2019-02-20T01:40:23.793Z,4.83
2019-02-20T01:43:09.350Z,4.84
2019-02-20T01:45:36.392Z,4.83
2019-02-20T01:48:03.427Z,4.86
2019-02-20T01:50:30.612Z,4.90
2019-02-20T01:53:59.036Z,4.88
2019-02-20T01:56:26.439Z,4.86
2019-02-20T01:58:53.551Z,4.88
2019-02-20T02:01:30.972Z,4.90
2019-02-20T02:03:58.009Z,4.92
2019-02-20T02:06:25.060Z,4.92
2019-02-20T02:08:52.142Z,4.91
2019-02-20T02:11:19.184Z,4.92
2019-02-20T02:13:46.249Z,4.90
2019-02-20T02:16:13.301Z,4.89
2019-02-20T02:18:40.344Z,4.85
2019-02-20T02:21:07.427Z,4.79
2019-02-20T02:23:40.956Z,4.78
2019-02-20T02:26:10.789Z,4.81
2019-02-20T02:28:36.981Z,4.80
2019-02-20T02:31:04.096Z,4.76
2019-02-20T02:33:32.345Z,4.70
2019-02-20T02:35:59.511Z,4.65
2019-02-20T02:38:26.620Z,4.62
2019-02-20T02:40:53.762Z,4.61
2019-02-20T02:43:20.847Z,4.59
2019-02-20T02:45:47.894Z,4.59
2019-02-20T02:48:20.153Z,4.62
2019-02-20T02:50:47.237Z,4.63
2019-02-20T02:53:14.279Z,4.62
2019-02-20T02:55:41.305Z,4.63
2019-02-20T02:58:08.372Z,4.66
2019-02-20T03:00:35.423Z,4.69
2019-02-20T03:03:02.469Z,4.73
2019-02-20T03:05:29.573Z,4.74
2019-02-20T03:07:56.610Z,4.75
2019-02-20T03:10:23.653Z,4.75
2019-02-20T03:13:09.578Z,4.74
2019-02-20T03:15:36.635Z,4.75
2019-02-20T03:18:03.686Z,4.79
2019-02-20T03:20:30.775Z,4.83
2019-02-20T03:22:57.824Z,4.85
2019-02-20T03:25:24.967Z,4.87
2019-02-20T03:27:52.046Z,4.87
2019-02-20T03:30:19.086Z,4.88
2019-02-20T03:32:46.216Z,4.89
2019-02-20T03:35:13.566Z,4.89
2019-02-20T03:37:40.642Z,4.87
2019-02-20T03:40:08.030Z,4.87
2019-02-20T03:42:35.104Z,4.85
2019-02-20T03:45:02.164Z,4.84
2019-02-20T03:48:23.858Z,4.82
2019-02-20T03:50:50.906Z,4.83
2019-02-20T03:53:17.930Z,4.85
2019-02-20T03:55:46.801Z,4.87
2019-02-20T03:58:13.851Z,4.88
2019-02-20T04:00:40.930Z,4.92
2019-02-20T04:03:08.098Z,4.94
2019-02-20T04:05:35.135Z,4.97
2019-02-20T04:08:02.179Z,4.99
2019-02-20T04:10:29.248Z,5.00
2019-02-20T04:12:56.372Z,5.03
2019-02-20T04:15:23.354Z,5.05
2019-02-20T04:17:50.436Z,5.05
2019-02-20T04:20:17.483Z,5.07
2019-02-20T04:22:44.562Z,5.07
2019-02-20T04:25:11.657Z,5.10
2019-02-20T04:27:38.699Z,5.10
2019-02-20T04:30:06.410Z,5.10
2019-02-20T04:32:33.494Z,5.12
2019-02-20T04:35:00.556Z,5.14
2019-02-20T04:37:27.613Z,5.14
2019-02-20T04:39:54.713Z,5.18
2019-02-20T04:42:21.823Z,5.18
2019-02-20T04:44:48.929Z,5.18
2019-02-20T04:47:15.952Z,5.20
2019-02-20T04:49:42.989Z,5.18
2019-02-20T04:52:10.179Z,5.17
2019-02-20T04:54:37.218Z,5.17
2019-02-20T04:57:04.258Z,5.18
2019-02-20T04:59:31.325Z,5.17
2019-02-20T05:01:58.450Z,5.15
2019-02-20T05:04:25.522Z,5.19
2019-02-20T05:06:52.611Z,5.20
2019-02-20T05:09:19.675Z,5.19
2019-02-20T05:11:46.712Z,5.18
2019-02-20T05:14:13.794Z,5.17
2019-02-20T05:16:40.844Z,5.15
2019-02-20T05:19:07.887Z,5.16
2019-02-20T05:21:34.986Z,5.13
2019-02-20T05:24:02.019Z,5.11
2019-02-20T05:26:29.144Z,5.09
2019-02-20T05:28:56.239Z,5.05
2019-02-20T05:31:23.378Z,5.04
2019-02-20T05:33:50.437Z,5.04
2019-02-20T05:36:17.589Z,5.09
2019-02-20T05:38:44.687Z,5.11
2019-02-20T05:41:11.912Z,5.12
2019-02-20T05:43:40.114Z,5.10
2019-02-20T05:46:07.646Z,5.05
2019-02-20T05:48:34.808Z,5.03
2019-02-20T05:51:01.901Z,5.02
2019-02-20T05:53:28.938Z,4.99
2019-02-20T05:55:56.027Z,4.97
2019-02-20T05:58:23.056Z,4.98
2019-02-20T06:00:50.086Z,4.96
2019-02-20T06:03:17.187Z,4.98
2019-02-20T06:05:44.466Z,4.95
2019-02-20T06:08:11.547Z,4.97
2019-02-20T06:10:38.637Z,4.97
2019-02-20T06:13:05.698Z,4.94
2019-02-20T06:15:34.077Z,4.94
2019-02-20T06:18:01.147Z,4.95
2019-02-20T06:20:28.195Z,4.89
2019-02-20T06:23:22.845Z,4.87
2019-02-20T06:25:50.103Z,4.87
2019-02-20T06:28:17.170Z,4.88
2019-02-20T06:30:44.248Z,4.88
2019-02-20T06:33:11.314Z,4.94
2019-02-20T06:35:38.415Z,4.97
2019-02-20T06:38:05.483Z,5.02
2019-02-20T06:40:32.532Z,5.04
2019-02-20T06:42:59.608Z,5.02
2019-02-20T06:45:26.751Z,5.01
2019-02-20T06:47:53.834Z,4.99
2019-02-20T06:50:21.188Z,4.98
2019-02-20T06:52:48.336Z,5.01
2019-02-20T06:55:15.422Z,5.03
2019-02-20T06:57:42.498Z,5.05
2019-02-20T07:00:10.247Z,5.07
2019-02-20T07:02:37.309Z,5.05
2019-02-20T07:05:40.544Z,5.03
2019-02-20T07:08:58.028Z,5.07
2019-02-20T07:11:52.394Z,5.08
2019-02-20T07:15:13.722Z,5.09
2019-02-20T07:18:28.184Z,5.12
2019-02-20T07:21:21.868Z,5.17
2019-02-20T07:24:39.752Z,5.21
2019-02-20T07:27:54.679Z,5.24
2019-02-20T07:30:21.790Z,5.27
2019-02-20T07:32:48.902Z,5.33
2019-02-20T07:35:15.934Z,5.40
2019-02-20T07:37:43.031Z,5.48
2019-02-20T07:40:11.508Z,5.53
2019-02-20T07:42:38.551Z,5.59
2019-02-20T07:45:07.305Z,5.63
2019-02-20T07:47:34.360Z,5.66
2019-02-20T07:50:01.429Z,5.71
2019-02-20T07:52:28.567Z,5.75
2019-02-20T07:54:55.635Z,5.81
2019-02-20T07:57:22.737Z,5.87
2019-02-20T07:59:49.852Z,5.92
2019-02-20T08:02:16.900Z,6.00
2019-02-20T08:04:43.966Z,6.09
2019-02-20T08:07:11.067Z,6.16
2019-02-20T08:09:38.269Z,6.22
2019-02-20T08:12:06.518Z,6.28
2019-02-20T08:14:33.595Z,6.32
2019-02-20T08:17:00.713Z,6.35
2019-02-20T08:19:27.757Z,6.41
2019-02-20T08:21:54.873Z,6.43
2019-02-20T08:24:22.091Z,6.49
2019-02-20T08:26:49.275Z,6.53
2019-02-20T08:29:16.479Z,6.58
2019-02-20T08:31:43.720Z,6.61
2019-02-20T08:34:10.836Z,6.64
2019-02-20T08:36:37.951Z,6.70
2019-02-20T08:39:05.305Z,6.77
2019-02-20T08:41:32.361Z,6.77
2019-02-20T08:43:59.589Z,6.80
2019-02-20T08:46:45.200Z,6.77
2019-02-20T08:49:12.369Z,6.78
2019-02-20T08:51:39.429Z,6.81
2019-02-20T08:54:06.578Z,6.83
2019-02-20T08:56:33.689Z,6.86
2019-02-20T08:59:00.759Z,6.90
2019-02-20T09:01:27.902Z,6.96
2019-02-20T09:03:54.967Z,7.00
2019-02-20T09:06:22.053Z,7.06
2019-02-20T09:08:49.353Z,7.08
2019-02-20T09:11:16.425Z,7.08
2019-02-20T09:13:43.498Z,7.09
2019-02-20T09:16:12.427Z,7.15
2019-02-20T09:18:40.619Z,7.19
2019-02-20T09:21:07.691Z,7.31
2019-02-20T09:23:34.842Z,7.46
2019-02-20T09:26:01.894Z,7.62
2019-02-20T09:28:29.018Z,7.82
2019-02-20T09:30:56.157Z,7.98
2019-02-20T09:33:23.294Z,8.10
2019-02-20T09:35:50.470Z,8.14
2019-02-20T09:38:17.606Z,8.31
2019-02-20T09:40:44.652Z,8.36
2019-02-20T09:43:11.708Z,8.45
2019-02-20T09:45:42.014Z,8.48
2019-02-20T09:48:07.904Z,8.37
2019-02-20T09:50:35.028Z,8.39
2019-02-20T09:53:02.249Z,8.34
2019-02-20T09:55:29.320Z,8.45
2019-02-20T09:57:56.487Z,8.58
2019-02-20T10:00:23.610Z,8.72
2019-02-20T10:02:50.678Z,8.83
2019-02-20T10:05:17.864Z,8.88
2019-02-20T10:07:45.006Z,8.82
2019-02-20T10:10:12.236Z,8.79
2019-02-20T10:12:39.378Z,8.72
2019-02-20T10:15:07.482Z,8.71
2019-02-20T10:17:34.565Z,8.83
2019-02-20T10:20:01.657Z,8.85
2019-02-20T10:22:28.940Z,8.83
2019-02-20T10:24:55.994Z,8.87
2019-02-20T10:27:23.078Z,8.95
2019-02-20T10:29:50.515Z,9.10
2019-02-20T10:32:17.581Z,9.19
2019-02-20T10:34:44.663Z,9.30
2019-02-20T10:37:11.940Z,9.42
2019-02-20T10:39:39.015Z,9.52
2019-02-20T10:42:06.086Z,9.72
2019-02-20T10:44:33.199Z,9.93
2019-02-20T10:47:00.288Z,10.10
2019-02-20T10:49:27.461Z,10.37
2019-02-20T10:52:13.128Z,10.52
2019-02-20T10:54:40.188Z,10.53
2019-02-20T10:57:07.252Z,10.47
2019-02-20T10:59:35.579Z,10.53
2019-02-20T11:02:02.655Z,10.58
2019-02-20T11:04:32.283Z,10.66
2019-02-20T11:06:59.377Z,10.67
2019-02-20T11:09:26.444Z,10.75
2019-02-20T11:11:54.529Z,10.99
2019-02-20T11:14:21.749Z,10.99
2019-02-20T11:16:48.826Z,11.00
2019-02-20T11:19:16.702Z,11.01
2019-02-20T11:21:43.781Z,11.06
2019-02-20T11:24:10.899Z,11.05
2019-02-20T11:26:46.239Z,11.09
2019-02-20T11:29:19.478Z,11.08
2019-02-20T11:31:46.571Z,11.05
2019-02-20T11:34:13.688Z,11.05
2019-02-20T11:36:40.836Z,11.02
2019-02-20T11:39:07.925Z,10.97
2019-02-20T11:41:35.004Z,10.93
2019-02-20T11:44:02.113Z,11.00
2019-02-20T11:46:29.200Z,11.11
2019-02-20T11:48:56.436Z,11.05
2019-02-20T11:51:23.571Z,11.08
2019-02-20T11:53:50.684Z,11.02
2019-02-20T11:56:26.842Z,11.02
2019-02-20T11:58:54.014Z,11.05
2019-02-20T12:01:21.079Z,11.05
2019-02-20T12:04:11.339Z,10.99
2019-02-20T12:06:38.429Z,10.94
2019-02-20T12:09:05.908Z,10.89
2019-02-20T12:11:34.131Z,10.94
2019-02-20T12:14:01.188Z,11.03
2019-02-20T12:16:28.380Z,10.94
2019-02-20T12:18:55.488Z,10.99
2019-02-20T12:21:22.657Z,11.01
2019-02-20T12:23:49.721Z,11.00
2019-02-20T12:26:16.962Z,11.00
2019-02-20T12:28:44.048Z,11.12
2019-02-20T12:31:11.102Z,11.13
2019-02-20T12:33:38.227Z,11.06
2019-02-20T12:36:05.357Z,11.11
2019-02-20T12:38:34.002Z,11.10
2019-02-20T12:41:01.219Z,11.00
2019-02-20T12:43:28.361Z,10.96
2019-02-20T12:45:55.426Z,11.16
2019-02-20T12:48:22.564Z,11.44
2019-02-20T12:50:49.743Z,11.66
2019-02-20T12:53:55.137Z,11.77
2019-02-20T12:56:22.352Z,11.90
2019-02-20T12:58:49.650Z,12.12
2019-02-20T13:01:16.757Z,12.22
2019-02-20T13:03:43.986Z,12.23
2019-02-20T13:06:11.236Z,12.34
2019-02-20T13:08:38.395Z,12.64
2019-02-20T13:11:05.595Z,12.81
2019-02-20T13:13:32.765Z,13.07
2019-02-20T13:15:59.957Z,13.27
2019-02-20T13:18:27.042Z,13.28
2019-02-20T13:20:54.170Z,13.12
2019-02-20T13:23:21.256Z,13.05
2019-02-20T13:25:48.321Z,12.96
2019-02-20T13:28:15.547Z,12.96
2019-02-20T13:30:42.613Z,12.68
2019-02-20T13:33:09.896Z,12.66
2019-02-20T13:35:38.142Z,12.65
2019-02-20T13:38:05.427Z,12.60
2019-02-20T13:40:32.551Z,12.59
2019-02-20T13:42:59.728Z,12.60
2019-02-20T13:45:26.821Z,12.63
2019-02-20T13:47:54.005Z,12.74
2019-02-20T13:50:21.330Z,12.87
2019-02-20T13:52:52.414Z,13.15
2019-02-20T13:55:17.388Z,13.44
2019-02-20T13:57:44.664Z,13.68
2019-02-20T14:00:13.276Z,13.88
2019-02-20T14:02:40.635Z,13.99
2019-02-20T14:05:07.866Z,14.13
2019-02-20T14:07:35.178Z,14.17
2019-02-20T14:10:02.561Z,14.06
2019-02-20T14:12:29.719Z,14.14
2019-02-20T14:14:56.821Z,14.21
2019-02-20T14:17:26.567Z,14.20
2019-02-20T14:19:52.891Z,14.15
2019-02-20T14:22:20.802Z,14.16
2019-02-20T14:24:49.237Z,14.19
2019-02-20T14:27:17.229Z,14.25
2019-02-20T14:29:44.873Z,13.98
2019-02-20T14:32:11.948Z,13.97
2019-02-20T14:34:39.079Z,14.16
2019-02-20T14:37:06.208Z,13.99
2019-02-20T14:39:40.071Z,14.02
2019-02-20T14:42:07.189Z,13.95
2019-02-20T14:44:34.550Z,13.88
2019-02-20T14:47:02.730Z,13.75
2019-02-20T14:49:29.921Z,13.53
2019-02-20T14:51:56.957Z,13.30
2019-02-20T14:54:24.234Z,13.05
2019-02-20T14:56:51.321Z,12.81
2019-02-20T14:59:18.483Z,12.68
2019-02-20T15:01:45.557Z,12.64
2019-02-20T15:04:14.008Z,12.57
2019-02-20T15:06:41.125Z,12.46
2019-02-20T15:09:08.287Z,12.39
2019-02-20T15:11:35.465Z,12.33
2019-02-20T15:14:02.539Z,12.31
2019-02-20T15:16:29.688Z,12.21
2019-02-20T15:18:56.798Z,12.07
2019-02-20T15:21:24.272Z,11.96
2019-02-20T15:23:51.467Z,11.95
2019-02-20T15:26:18.574Z,11.84
2019-02-20T15:28:45.629Z,11.78
2019-02-20T15:31:12.697Z,11.69
2019-02-20T15:33:39.988Z,11.70
2019-02-20T15:36:07.348Z,11.61
2019-02-20T15:38:34.468Z,11.52
2019-02-20T15:41:02.053Z,11.53
2019-02-20T15:43:29.117Z,11.43
2019-02-20T15:45:56.193Z,11.30
2019-02-20T15:48:23.758Z,11.21
2019-02-20T15:50:53.048Z,11.18
2019-02-20T15:53:20.088Z,11.09
2019-02-20T15:55:47.276Z,11.04
2019-02-20T15:58:15.051Z,10.99
2019-02-20T16:00:42.137Z,10.94
2019-02-20T16:03:09.231Z,10.90
2019-02-20T16:05:36.309Z,10.89
2019-02-20T16:08:03.454Z,10.87
2019-02-20T16:10:31.162Z,10.88
2019-02-20T16:12:58.317Z,10.90
2019-02-20T16:15:25.384Z,10.93
2019-02-20T16:17:52.865Z,10.92
2019-02-20T16:20:19.943Z,10.86
2019-02-20T16:22:47.014Z,10.84
2019-02-20T16:25:14.213Z,10.83
2019-02-20T16:27:47.361Z,10.79
2019-02-20T16:30:11.263Z,10.76
2019-02-20T16:32:38.380Z,10.75
2019-02-20T16:35:07.712Z,10.67
2019-02-20T16:37:34.972Z,10.66
2019-02-20T16:40:02.110Z,10.65
2019-02-20T16:42:29.335Z,10.60
2019-02-20T16:44:56.389Z,10.53
2019-02-20T16:47:23.615Z,10.43
2019-02-20T16:49:50.723Z,10.41
2019-02-20T16:52:17.919Z,10.36
2019-02-20T16:54:45.602Z,10.33
2019-02-20T16:57:12.827Z,10.36
2019-02-20T16:59:39.973Z,10.29
2019-02-20T17:02:07.781Z,10.21
2019-02-20T17:04:34.914Z,10.16
2019-02-20T17:07:02.103Z,10.11
2019-02-20T17:09:29.171Z,9.99
2019-02-20T17:11:56.239Z,9.88
2019-02-20T17:14:23.454Z,9.78
2019-02-20T17:16:50.499Z,9.74
2019-02-20T17:19:17.565Z,9.73
2019-02-20T17:21:46.210Z,9.70
2019-02-20T17:24:13.261Z,9.68
2019-02-20T17:26:40.440Z,9.65
2019-02-20T17:29:07.579Z,9.61
2019-02-20T17:31:35.563Z,9.63
2019-02-20T17:34:02.730Z,9.59
2019-02-20T17:36:29.812Z,9.59
2019-02-20T17:38:56.933Z,9.64
2019-02-20T17:41:24.037Z,9.64
2019-02-20T17:43:51.265Z,9.53
2019-02-20T17:46:18.767Z,9.45
2019-02-20T17:48:46.036Z,9.44
2019-02-20T17:51:13.345Z,9.35
2019-02-20T17:54:06.648Z,9.19
2019-02-20T17:56:33.744Z,9.07
2019-02-20T17:59:00.836Z,8.98
2019-02-20T18:01:28.105Z,8.95
2019-02-20T18:03:55.383Z,9.05
2019-02-20T18:06:22.610Z,9.14
2019-02-20T18:08:49.792Z,9.14
2019-02-20T18:11:17.167Z,9.16
2019-02-20T18:13:44.362Z,9.10
2019-02-20T18:16:11.556Z,8.99
2019-02-20T18:18:38.671Z,8.85
2019-02-20T18:21:05.788Z,8.74
2019-02-20T18:23:32.940Z,8.64
2019-02-20T18:26:01.045Z,8.55
2019-02-20T18:28:28.159Z,8.46
2019-02-20T18:30:55.297Z,8.38
2019-02-20T18:33:22.482Z,8.28
2019-02-20T18:35:49.713Z,8.21
2019-02-20T18:38:16.845Z,8.17
2019-02-20T18:40:44.101Z,8.13
2019-02-20T18:43:12.303Z,8.07
2019-02-20T18:45:39.530Z,8.04
2019-02-20T18:48:06.774Z,8.01
2019-02-20T18:50:33.902Z,7.98
2019-02-20T18:53:01.048Z,7.92
2019-02-20T18:55:29.501Z,7.86
2019-02-20T18:57:56.693Z,7.80
2019-02-20T19:00:23.826Z,7.74
2019-02-20T19:03:27.408Z,7.69
2019-02-20T19:05:54.618Z,7.62
2019-02-20T19:08:39.933Z,7.55
2019-02-20T19:11:44.301Z,7.50
2019-02-20T19:14:26.719Z,7.46
2019-02-20T19:17:21.118Z,7.38
2019-02-20T19:20:02.180Z,7.31
2019-02-20T19:22:57.729Z,7.23
2019-02-20T19:26:02.884Z,7.14
2019-02-20T19:29:10.468Z,7.06
2019-02-20T19:32:04.969Z,7.06
2019-02-20T19:35:21.404Z,7.24
2019-02-20T19:37:55.051Z,7.44
2019-02-20T19:41:02.708Z,7.59
2019-02-20T19:43:57.753Z,7.65
2019-02-20T19:47:04.586Z,7.68
2019-02-20T19:50:25.547Z,7.69
2019-02-20T19:53:04.930Z,7.64
2019-02-20T19:55:57.832Z,7.52
2019-02-20T19:59:01.132Z,7.45
2019-02-20T20:02:10.188Z,7.39
2019-02-20T20:05:38.797Z,7.38
2019-02-20T20:08:52.890Z,7.34
2019-02-20T20:12:19.893Z,7.32
2019-02-20T20:15:02.826Z,7.29
2019-02-20T20:18:19.162Z,7.24
2019-02-20T20:21:15.844Z,7.24
2019-02-20T20:24:10.321Z,7.22
2019-02-20T20:27:23.042Z,7.18
2019-02-20T20:30:44.900Z,7.22
2019-02-20T20:33:49.843Z,7.25
2019-02-20T20:36:46.842Z,7.37
2019-02-20T20:40:06.810Z,7.48
2019-02-20T20:43:05.430Z,7.45
2019-02-20T20:45:48.661Z,7.37
2019-02-20T20:48:57.474Z,7.30
2019-02-20T20:51:57.009Z,7.32
2019-02-20T20:55:10.610Z,7.34
2019-02-20T20:58:16.212Z,7.29
2019-02-20T21:01:26.744Z,7.22
2019-02-20T21:04:20.387Z,7.19
2019-02-20T21:07:26.728Z,7.17
2019-02-20T21:10:49.843Z,7.13
2019-02-20T21:14:00.217Z,7.04
2019-02-20T21:16:50.951Z,6.99
2019-02-20T21:19:57.829Z,7.01
2019-02-20T21:23:05.540Z,6.98
2019-02-20T21:25:51.023Z,7.11
2019-02-20T21:28:50.865Z,7.12
2019-02-20T21:32:15.356Z,7.13
2019-02-20T21:35:18.897Z,7.07
2019-02-20T21:38:16.522Z,6.99
2019-02-20T21:41:25.423Z,6.92
2019-02-20T21:44:14.977Z,6.82
2019-02-20T21:47:09.513Z,6.75
2019-02-20T21:50:03.868Z,6.67
2019-02-20T21:53:13.993Z,6.60
2019-02-20T21:56:12.044Z,6.54
2019-02-20T21:59:03.305Z,6.53
2019-02-20T22:02:01.659Z,6.52
2019-02-20T22:04:49.942Z,6.48
2019-02-20T22:07:58.810Z,6.40
2019-02-20T22:11:24.368Z,6.34
2019-02-20T22:14:17.175Z,6.29
2019-02-20T22:17:06.315Z,6.27
2019-02-20T22:20:07.200Z,6.27
2019-02-20T22:23:18.645Z,6.24
2019-02-20T22:26:17.177Z,6.21
2019-02-20T22:29:20.510Z,6.22
2019-02-20T22:32:35.904Z,6.18
2019-02-20T22:35:40.578Z,6.15
2019-02-20T22:39:05.173Z,6.10
2019-02-20T22:42:12.859Z,6.11
2019-02-20T22:45:19.044Z,6.13
2019-02-20T22:47:59.913Z,6.14
2019-02-20T22:51:00.187Z,6.12
2019-02-20T22:53:50.080Z,6.08
2019-02-20T22:57:13.307Z,6.04
2019-02-20T23:00:17.964Z,6.06
2019-02-20T23:03:10.661Z,6.00
2019-02-20T23:06:14.245Z,6.00
2019-02-20T23:09:37.423Z,5.96
2019-02-20T23:12:22.955Z,5.96
2019-02-20T23:15:09.571Z,6.02
2019-02-20T23:17:36.648Z,6.03
2019-02-20T23:20:04.474Z,6.07
2019-02-20T23:22:31.623Z,6.12
2019-02-20T23:24:58.659Z,6.19
2019-02-20T23:27:25.740Z,6.16
2019-02-20T23:29:53.070Z,6.09
2019-02-20T23:32:20.153Z,6.09
2019-02-20T23:34:47.212Z,6.12
2019-02-20T23:37:15.759Z,6.13
2019-02-20T23:39:44.769Z,6.09
2019-02-20T23:42:11.850Z,6.04
2019-02-20T23:44:38.954Z,5.95
2019-02-20T23:47:06.027Z,5.81
2019-02-20T23:49:33.106Z,5.68
2019-02-20T23:52:00.221Z,5.63
2019-02-20T23:54:27.599Z,5.64
2019-02-20T23:56:54.814Z,5.73
2019-02-20T23:59:21.913Z,5.80
